createdAt,value
2022-11-17T00:00:02.469Z,61.20
2022-11-17T00:05:04.081Z,61.28
2022-11-17T00:10:06.024Z,60.98
2022-11-17T00:15:07.568Z,60.36
2022-11-17T00:20:30.621Z,60.65
2022-11-17T00:25:32.066Z,60.65
2022-11-17T00:30:51.891Z,60.03
2022-11-17T00:35:53.575Z,60.34
2022-11-17T00:40:55.027Z,59.36
2022-11-17T00:45:56.494Z,59.94
2022-11-17T00:50:57.942Z,60.59
2022-11-17T00:55:59.405Z,59.55
2022-11-17T01:01:01.106Z,59.95
2022-11-17T01:06:07.064Z,59.95
2022-11-17T01:11:13.315Z,59.25
2022-11-17T01:16:18.555Z,60.37
2022-11-17T01:21:21.708Z,59.17
2022-11-17T01:26:24.940Z,58.28
2022-11-17T01:31:28.092Z,57.95
2022-11-17T01:36:30.057Z,58.85
2022-11-17T01:41:31.504Z,60.27
2022-11-17T01:46:37.760Z,59.51
2022-11-17T01:51:42.212Z,60.44
2022-11-17T01:56:44.379Z,59.46
2022-11-17T02:01:55.718Z,60.49
2022-11-17T02:07:01.209Z,59.91
2022-11-17T02:12:02.714Z,61.24
2022-11-17T02:17:11.531Z,61.36
2022-11-17T02:22:49.475Z,60.30
2022-11-17T02:28:10.927Z,60.70
2022-11-17T02:33:13.463Z,60.05
2022-11-17T02:38:23.819Z,59.51
2022-11-17T02:43:46.271Z,60.10
2022-11-17T02:48:54.795Z,60.60
2022-11-17T02:53:56.518Z,59.81
2022-11-17T02:58:59.654Z,59.88
2022-11-17T03:04:21.204Z,60.67
2022-11-17T03:09:42.221Z,60.80
2022-11-17T03:14:58.514Z,59.65
2022-11-17T03:20:12.560Z,59.53
2022-11-17T03:25:15.001Z,59.79
2022-11-17T03:30:16.508Z,60.17
2022-11-17T03:35:20.036Z,60.13
2022-11-17T03:40:23.291Z,61.33
2022-11-17T03:45:35.296Z,60.74
2022-11-17T03:50:37.957Z,59.68
2022-11-17T03:55:50.323Z,61.04
2022-11-17T04:00:52.130Z,61.84
2022-11-17T04:05:53.585Z,60.02
2022-11-17T04:11:14.447Z,60.81
2022-11-17T04:16:15.888Z,61.67
2022-11-17T04:21:17.354Z,62.29
2022-11-17T04:26:37.082Z,60.27
2022-11-17T04:31:38.530Z,60.82
2022-11-17T04:36:43.789Z,60.31
2022-11-17T04:41:54.241Z,59.96
2022-11-17T04:46:55.860Z,60.03
2022-11-17T04:51:57.311Z,59.92
2022-11-17T04:56:58.765Z,60.40
2022-11-17T05:02:05.658Z,60.19
2022-11-17T05:07:08.149Z,61.10
2022-11-17T05:12:28.083Z,60.18
2022-11-17T05:17:29.798Z,61.31
2022-11-17T05:22:49.855Z,61.11
2022-11-17T05:27:51.316Z,60.58
2022-11-17T05:32:52.779Z,60.14
2022-11-17T05:37:54.240Z,60.60
2022-11-17T05:42:57.215Z,59.92
2022-11-17T05:47:58.656Z,60.47
2022-11-17T05:53:00.115Z,59.87
2022-11-17T05:58:15.751Z,60.58
2022-11-17T06:03:22.517Z,60.69
2022-11-17T06:08:23.961Z,60.44
2022-11-17T06:13:28.897Z,60.07
2022-11-17T06:18:38.459Z,61.77
2022-11-17T06:23:39.914Z,60.88
2022-11-17T06:28:41.735Z,60.34
2022-11-17T06:33:43.286Z,60.55
2022-11-17T06:38:44.745Z,61.06
2022-11-17T06:43:46.200Z,60.48
2022-11-17T06:48:48.031Z,61.70
2022-11-17T06:53:49.494Z,61.57
2022-11-17T06:58:50.952Z,61.31
2022-11-17T07:03:52.477Z,59.19
2022-11-17T07:08:53.940Z,59.47
2022-11-17T07:13:55.390Z,59.03
2022-11-17T07:18:59.094Z,61.04
2022-11-17T07:24:00.590Z,60.09
2022-11-17T07:29:02.049Z,59.46
2022-11-17T07:34:03.514Z,59.67
2022-11-17T07:39:05.616Z,59.32
2022-11-17T07:44:07.063Z,59.10
2022-11-17T07:49:08.526Z,59.60
2022-11-17T07:54:10.007Z,59.97
2022-11-17T07:59:11.462Z,59.66
2022-11-17T08:04:12.933Z,59.44
2022-11-17T08:09:15.712Z,60.28
2022-11-17T08:14:17.221Z,60.63
2022-11-17T08:19:18.684Z,60.66
2022-11-17T08:24:20.129Z,60.69
2022-11-17T08:29:21.626Z,60.92
2022-11-17T08:34:23.092Z,61.31
2022-11-17T08:39:24.565Z,61.30
2022-11-17T08:44:26.172Z,62.13
2022-11-17T08:49:27.744Z,61.74
2022-11-17T08:54:29.191Z,61.71
2022-11-17T08:59:30.635Z,63.76
2022-11-17T09:04:32.083Z,62.81
2022-11-17T09:09:33.573Z,63.25
2022-11-17T09:14:35.108Z,61.54
2022-11-17T09:19:36.627Z,62.55
2022-11-17T09:24:38.088Z,62.38
2022-11-17T09:29:39.948Z,62.48
2022-11-17T09:34:41.552Z,63.02
2022-11-17T09:39:43.938Z,62.60
2022-11-17T09:45:25.635Z,63.02
2022-11-17T09:50:35.316Z,63.35
2022-11-17T09:55:43.243Z,63.22
2022-11-17T10:00:48.744Z,63.22
2022-11-17T10:05:50.361Z,63.21
2022-11-17T10:10:51.854Z,63.19
2022-11-17T10:15:58.511Z,63.67
2022-11-17T10:20:59.991Z,64.21
2022-11-17T10:26:01.462Z,64.96
2022-11-17T10:31:03.713Z,64.49
2022-11-17T10:36:14.247Z,64.55
2022-11-17T10:41:38.945Z,63.37
2022-11-17T10:47:07.977Z,64.05
2022-11-17T10:52:09.292Z,64.57
2022-11-17T10:57:22.588Z,65.35
2022-11-17T11:02:31.405Z,66.38
2022-11-17T11:07:32.894Z,65.81
2022-11-17T11:12:35.837Z,65.84
2022-11-17T11:17:37.296Z,64.81
2022-11-17T11:22:43.208Z,65.84
2022-11-17T11:27:52.327Z,65.67
2022-11-17T11:33:06.479Z,65.89
2022-11-17T11:38:22.176Z,64.69
2022-11-17T11:43:35.856Z,65.24
2022-11-17T11:48:37.334Z,64.08
2022-11-17T11:53:43.350Z,63.18
2022-11-17T11:58:47.974Z,63.88
2022-11-17T12:04:04.233Z,64.00
2022-11-17T12:09:30.261Z,64.15
2022-11-17T12:14:32.965Z,64.08
2022-11-17T12:19:55.163Z,64.07
2022-11-17T12:25:03.995Z,64.20
2022-11-17T12:30:06.435Z,64.83
2022-11-17T12:35:28.143Z,64.25
2022-11-17T12:40:38.674Z,63.49
2022-11-17T12:45:58.213Z,64.27
2022-11-17T12:51:26.782Z,64.13
2022-11-17T12:56:42.382Z,63.87
2022-11-17T13:01:56.250Z,64.45
2022-11-17T13:07:01.414Z,64.37
2022-11-17T13:12:07.051Z,65.11
2022-11-17T13:17:11.494Z,64.10
2022-11-17T13:22:13.740Z,63.20
2022-11-17T13:27:31.268Z,64.72
2022-11-17T13:32:32.741Z,63.77
2022-11-17T13:37:34.195Z,63.48
2022-11-17T13:42:35.670Z,64.81
2022-11-17T13:47:36.962Z,63.85
2022-11-17T13:52:45.331Z,63.91
2022-11-17T13:57:56.659Z,63.11
2022-11-17T14:02:59.603Z,63.97
2022-11-17T14:08:33.687Z,63.95
2022-11-17T14:13:44.522Z,64.58
2022-11-17T14:18:56.039Z,63.76
2022-11-17T14:24:05.345Z,64.34
2022-11-17T14:29:10.220Z,63.95
2022-11-17T14:34:11.738Z,64.43
2022-11-17T14:39:15.076Z,65.30
2022-11-17T14:44:16.704Z,64.20
2022-11-17T14:49:18.350Z,65.72
2022-11-17T14:54:19.903Z,65.30
2022-11-17T14:59:21.348Z,64.65
2022-11-17T15:09:44.706Z,65.23
2022-11-17T15:14:49.324Z,65.52
2022-11-17T15:19:50.776Z,65.17
2022-11-17T15:24:52.227Z,65.44
2022-11-17T15:29:53.921Z,65.75
2022-11-17T15:34:55.383Z,65.32
2022-11-17T15:39:56.851Z,65.61
2022-11-17T15:44:58.300Z,64.70
2022-11-17T15:49:59.745Z,63.76
2022-11-17T15:55:01.192Z,64.81
2022-11-17T16:00:04.226Z,66.10
2022-11-17T16:05:06.266Z,65.79
2022-11-17T16:10:07.855Z,65.21
2022-11-17T16:15:09.435Z,64.53
2022-11-17T16:20:11.317Z,64.09
2022-11-17T16:25:12.877Z,64.80
2022-11-17T16:30:14.883Z,65.47
2022-11-17T16:35:16.371Z,64.66
2022-11-17T16:40:18.436Z,64.92
2022-11-17T16:45:20.001Z,65.49
2022-11-17T16:50:21.466Z,64.86
2022-11-17T16:55:22.952Z,65.33
2022-11-17T17:00:24.417Z,65.55
2022-11-17T17:05:25.931Z,65.22
2022-11-17T17:10:27.391Z,65.09
2022-11-17T17:15:28.838Z,64.70
2022-11-17T17:20:30.290Z,64.20
2022-11-17T17:25:32.555Z,64.41
2022-11-17T17:30:34.002Z,65.11
2022-11-17T17:35:35.445Z,64.80
2022-11-17T17:40:36.891Z,65.65
2022-11-17T17:45:38.483Z,66.19
2022-11-17T17:50:40.166Z,65.09
2022-11-17T17:55:41.649Z,64.41
2022-11-17T18:00:43.518Z,65.42
2022-11-17T18:05:46.219Z,65.45
2022-11-17T18:10:47.672Z,65.72
2022-11-17T18:15:49.167Z,66.21
2022-11-17T18:21:06.557Z,65.57
2022-11-17T18:26:21.849Z,66.67
2022-11-17T18:31:24.189Z,65.69
2022-11-17T18:36:26.200Z,66.37
2022-11-17T18:41:30.500Z,65.91
2022-11-17T18:46:32.190Z,66.47
2022-11-17T18:51:34.406Z,66.50
2022-11-17T18:56:36.530Z,65.64
2022-11-17T19:01:39.021Z,65.12
2022-11-17T19:06:40.576Z,65.22
2022-11-17T19:11:42.097Z,65.32
2022-11-17T19:16:45.093Z,65.72
2022-11-17T19:21:46.691Z,65.99
2022-11-17T19:26:48.167Z,66.45
2022-11-17T19:31:51.101Z,65.81
2022-11-17T19:36:52.882Z,65.12
2022-11-17T19:41:54.368Z,66.17
2022-11-17T19:46:55.881Z,64.71
2022-11-17T19:51:57.372Z,65.26
2022-11-17T19:56:58.890Z,64.43
2022-11-17T20:02:00.355Z,63.75
2022-11-17T20:07:01.881Z,63.87
2022-11-17T20:12:03.455Z,64.25
2022-11-17T20:17:04.902Z,64.53
2022-11-17T20:22:06.439Z,63.89
2022-11-17T20:27:07.891Z,64.95
2022-11-17T20:32:09.360Z,64.71
2022-11-17T20:37:11.866Z,64.40
2022-11-17T20:42:17.092Z,64.70
2022-11-17T20:47:18.537Z,63.36
2022-11-17T20:52:20.191Z,63.53
2022-11-17T20:57:21.654Z,63.17
2022-11-17T21:02:23.114Z,62.61
2022-11-17T21:07:24.601Z,62.89
2022-11-17T21:12:26.119Z,63.03
2022-11-17T21:17:46.109Z,63.40
2022-11-17T21:22:47.618Z,63.57
2022-11-17T21:27:49.076Z,64.31
2022-11-17T21:32:50.599Z,63.20
2022-11-17T21:37:52.077Z,62.88
2022-11-17T21:42:53.526Z,63.29
2022-11-17T21:47:59.212Z,64.09
2022-11-17T21:53:01.392Z,63.98
2022-11-17T21:58:02.867Z,62.90
2022-11-17T22:03:04.354Z,63.44
2022-11-17T22:08:05.902Z,62.98
2022-11-17T22:13:08.272Z,62.76
2022-11-17T22:18:09.733Z,63.25
2022-11-17T22:23:11.203Z,62.55
2022-11-17T22:28:12.695Z,62.45
2022-11-17T22:33:14.182Z,64.25
2022-11-17T22:38:15.895Z,63.81
2022-11-17T22:43:17.339Z,63.03
2022-11-17T22:48:18.804Z,63.23
2022-11-17T22:53:20.354Z,61.90
2022-11-17T22:58:21.839Z,62.35
2022-11-17T23:03:23.541Z,62.48
2022-11-17T23:08:25.062Z,62.48
2022-11-17T23:13:26.517Z,62.32
2022-11-17T23:18:28.001Z,62.87
2022-11-17T23:23:33.071Z,62.99
2022-11-17T23:28:34.547Z,62.29
2022-11-17T23:33:37.488Z,62.40
2022-11-17T23:38:38.959Z,62.64
2022-11-17T23:43:40.476Z,61.76
2022-11-17T23:48:42.024Z,61.63
2022-11-17T23:53:43.530Z,61.28
2022-11-17T23:58:44.997Z,61.55
